sensor_id;sensor_type;location;lat;lon;timestamp;P1;durP1;ratioP1;P2;durP2;ratioP2
19131;SDS011;9698;51.976;7.570;2023-07-13T00:02:25;4.13;;;2.23;;
19131;SDS011;9698;51.976;7.570;2023-07-13T00:04:53;5.50;;;2.50;;
19131;SDS011;9698;51.976;7.570;2023-07-13T00:07:21;7.47;;;3.03;;
19131;SDS011;9698;51.976;7.570;2023-07-13T00:09:50;7.00;;;2.80;;
19131;SDS011;9698;51.976;7.570;2023-07-13T00:12:23;5.87;;;2.70;;
19131;SDS011;9698;51.976;7.570;2023-07-13T00:14:52;7.23;;;2.77;;
19131;SDS011;9698;51.976;7.570;2023-07-13T00:17:20;5.83;;;2.63;;
19131;SDS011;9698;51.976;7.570;2023-07-13T00:19:48;6.43;;;2.60;;
19131;SDS011;9698;51.976;7.570;2023-07-13T00:22:16;4.83;;;2.40;;
19131;SDS011;9698;51.976;7.570;2023-07-13T00:24:44;5.73;;;2.87;;
19131;SDS011;9698;51.976;7.570;2023-07-13T00:27:12;4.20;;;2.30;;
19131;SDS011;9698;51.976;7.570;2023-07-13T00:29:40;4.43;;;2.37;;
19131;SDS011;9698;51.976;7.570;2023-07-13T00:32:08;6.77;;;2.33;;
19131;SDS011;9698;51.976;7.570;2023-07-13T00:34:37;5.03;;;2.27;;
19131;SDS011;9698;51.976;7.570;2023-07-13T00:37:06;4.17;;;2.40;;
19131;SDS011;9698;51.976;7.570;2023-07-13T00:39:34;3.57;;;2.37;;
19131;SDS011;9698;51.976;7.570;2023-07-13T00:42:02;3.03;;;2.37;;
19131;SDS011;9698;51.976;7.570;2023-07-13T00:44:31;5.43;;;2.60;;
19131;SDS011;9698;51.976;7.570;2023-07-13T00:46:59;6.37;;;2.60;;
19131;SDS011;9698;51.976;7.570;2023-07-13T00:49:29;7.03;;;2.67;;
19131;SDS011;9698;51.976;7.570;2023-07-13T00:51:59;5.10;;;3.00;;
19131;SDS011;9698;51.976;7.570;2023-07-13T00:54:30;6.70;;;2.80;;
19131;SDS011;9698;51.976;7.570;2023-07-13T00:57:01;6.87;;;2.50;;
19131;SDS011;9698;51.976;7.570;2023-07-13T00:59:32;5.57;;;2.57;;
19131;SDS011;9698;51.976;7.570;2023-07-13T01:02:01;4.60;;;2.77;;
19131;SDS011;9698;51.976;7.570;2023-07-13T01:04:30;5.47;;;2.73;;
19131;SDS011;9698;51.976;7.570;2023-07-13T01:06:58;6.10;;;2.93;;
19131;SDS011;9698;51.976;7.570;2023-07-13T01:09:26;7.90;;;3.10;;
19131;SDS011;9698;51.976;7.570;2023-07-13T01:11:55;5.80;;;2.97;;
19131;SDS011;9698;51.976;7.570;2023-07-13T01:14:23;4.03;;;2.80;;
19131;SDS011;9698;51.976;7.570;2023-07-13T01:16:51;5.73;;;2.90;;
19131;SDS011;9698;51.976;7.570;2023-07-13T01:19:28;4.63;;;2.43;;
19131;SDS011;9698;51.976;7.570;2023-07-13T01:22:02;7.07;;;2.70;;
19131;SDS011;9698;51.976;7.570;2023-07-13T01:24:35;7.10;;;3.03;;
19131;SDS011;9698;51.976;7.570;2023-07-13T01:27:04;5.63;;;2.93;;
19131;SDS011;9698;51.976;7.570;2023-07-13T01:29:34;6.80;;;2.80;;
19131;SDS011;9698;51.976;7.570;2023-07-13T01:32:08;5.60;;;3.00;;
19131;SDS011;9698;51.976;7.570;2023-07-13T01:34:37;6.83;;;3.23;;
19131;SDS011;9698;51.976;7.570;2023-07-13T01:37:08;5.23;;;2.60;;
19131;SDS011;9698;51.976;7.570;2023-07-13T01:39:37;5.90;;;2.83;;
19131;SDS011;9698;51.976;7.570;2023-07-13T01:42:05;5.97;;;2.50;;
19131;SDS011;9698;51.976;7.570;2023-07-13T01:44:33;6.07;;;3.07;;
19131;SDS011;9698;51.976;7.570;2023-07-13T01:47:01;8.03;;;2.80;;
19131;SDS011;9698;51.976;7.570;2023-07-13T01:49:30;3.97;;;2.57;;
19131;SDS011;9698;51.976;7.570;2023-07-13T01:51:58;5.50;;;2.53;;
19131;SDS011;9698;51.976;7.570;2023-07-13T01:54:26;6.83;;;2.70;;
19131;SDS011;9698;51.976;7.570;2023-07-13T01:56:54;5.20;;;2.60;;
19131;SDS011;9698;51.976;7.570;2023-07-13T01:59:22;6.90;;;2.57;;
19131;SDS011;9698;51.976;7.570;2023-07-13T02:01:50;5.50;;;2.73;;
19131;SDS011;9698;51.976;7.570;2023-07-13T02:04:18;5.93;;;3.10;;
19131;SDS011;9698;51.976;7.570;2023-07-13T02:06:45;5.30;;;2.43;;
19131;SDS011;9698;51.976;7.570;2023-07-13T02:09:13;7.00;;;2.63;;
19131;SDS011;9698;51.976;7.570;2023-07-13T02:11:41;6.70;;;3.30;;
19131;SDS011;9698;51.976;7.570;2023-07-13T02:16:58;6.47;;;2.60;;
19131;SDS011;9698;51.976;7.570;2023-07-13T02:19:27;6.90;;;2.80;;
19131;SDS011;9698;51.976;7.570;2023-07-13T02:21:55;4.80;;;2.70;;
19131;SDS011;9698;51.976;7.570;2023-07-13T02:24:22;5.90;;;2.70;;
19131;SDS011;9698;51.976;7.570;2023-07-13T02:26:50;7.80;;;3.20;;
19131;SDS011;9698;51.976;7.570;2023-07-13T02:29:19;5.50;;;2.97;;
19131;SDS011;9698;51.976;7.570;2023-07-13T02:31:46;9.13;;;2.93;;
19131;SDS011;9698;51.976;7.570;2023-07-13T02:34:14;5.57;;;3.07;;
19131;SDS011;9698;51.976;7.570;2023-07-13T02:36:42;7.47;;;3.03;;
19131;SDS011;9698;51.976;7.570;2023-07-13T02:39:10;4.93;;;2.90;;
19131;SDS011;9698;51.976;7.570;2023-07-13T02:41:39;8.40;;;3.20;;
19131;SDS011;9698;51.976;7.570;2023-07-13T02:44:07;5.50;;;2.80;;
19131;SDS011;9698;51.976;7.570;2023-07-13T02:46:35;6.87;;;2.87;;
19131;SDS011;9698;51.976;7.570;2023-07-13T02:49:24;6.40;;;2.77;;
19131;SDS011;9698;51.976;7.570;2023-07-13T02:51:52;7.63;;;3.40;;
19131;SDS011;9698;51.976;7.570;2023-07-13T02:54:20;5.40;;;3.13;;
19131;SDS011;9698;51.976;7.570;2023-07-13T02:56:48;7.07;;;2.70;;
19131;SDS011;9698;51.976;7.570;2023-07-13T02:59:16;9.60;;;3.20;;
19131;SDS011;9698;51.976;7.570;2023-07-13T03:01:44;5.27;;;2.40;;
19131;SDS011;9698;51.976;7.570;2023-07-13T03:04:11;8.40;;;2.80;;
19131;SDS011;9698;51.976;7.570;2023-07-13T03:06:40;6.37;;;2.93;;
19131;SDS011;9698;51.976;7.570;2023-07-13T03:09:07;4.43;;;2.77;;
19131;SDS011;9698;51.976;7.570;2023-07-13T03:11:35;5.53;;;2.60;;
19131;SDS011;9698;51.976;7.570;2023-07-13T03:14:04;5.50;;;2.50;;
19131;SDS011;9698;51.976;7.570;2023-07-13T03:16:32;6.27;;;2.80;;
19131;SDS011;9698;51.976;7.570;2023-07-13T03:19:00;7.73;;;2.67;;
19131;SDS011;9698;51.976;7.570;2023-07-13T03:21:27;5.80;;;2.77;;
19131;SDS011;9698;51.976;7.570;2023-07-13T03:23:55;5.80;;;2.70;;
19131;SDS011;9698;51.976;7.570;2023-07-13T03:26:23;6.47;;;2.77;;
19131;SDS011;9698;51.976;7.570;2023-07-13T03:28:51;5.63;;;2.37;;
19131;SDS011;9698;51.976;7.570;2023-07-13T03:31:23;3.70;;;2.33;;
19131;SDS011;9698;51.976;7.570;2023-07-13T03:33:52;4.93;;;2.43;;
19131;SDS011;9698;51.976;7.570;2023-07-13T03:36:20;4.93;;;2.50;;
19131;SDS011;9698;51.976;7.570;2023-07-13T03:38:50;7.50;;;2.70;;
19131;SDS011;9698;51.976;7.570;2023-07-13T03:41:20;7.33;;;2.77;;
19131;SDS011;9698;51.976;7.570;2023-07-13T03:43:48;5.13;;;2.43;;
19131;SDS011;9698;51.976;7.570;2023-07-13T03:46:17;4.30;;;2.53;;
19131;SDS011;9698;51.976;7.570;2023-07-13T03:48:46;6.17;;;2.37;;
19131;SDS011;9698;51.976;7.570;2023-07-13T03:51:15;7.67;;;2.77;;
19131;SDS011;9698;51.976;7.570;2023-07-13T03:53:45;6.53;;;2.80;;
19131;SDS011;9698;51.976;7.570;2023-07-13T03:56:14;6.87;;;2.60;;
19131;SDS011;9698;51.976;7.570;2023-07-13T03:58:44;8.00;;;2.63;;
19131;SDS011;9698;51.976;7.570;2023-07-13T04:01:14;10.80;;;2.37;;
19131;SDS011;9698;51.976;7.570;2023-07-13T04:03:44;4.07;;;2.20;;
19131;SDS011;9698;51.976;7.570;2023-07-13T04:06:14;4.77;;;2.43;;
19131;SDS011;9698;51.976;7.570;2023-07-13T04:08:47;6.47;;;2.30;;
19131;SDS011;9698;51.976;7.570;2023-07-13T04:11:17;5.83;;;2.63;;
19131;SDS011;9698;51.976;7.570;2023-07-13T04:13:45;4.17;;;1.80;;
19131;SDS011;9698;51.976;7.570;2023-07-13T04:16:13;5.70;;;2.50;;
19131;SDS011;9698;51.976;7.570;2023-07-13T04:18:42;5.97;;;2.23;;
19131;SDS011;9698;51.976;7.570;2023-07-13T04:21:11;6.30;;;2.20;;
19131;SDS011;9698;51.976;7.570;2023-07-13T04:23:39;5.57;;;2.27;;
19131;SDS011;9698;51.976;7.570;2023-07-13T04:26:07;5.87;;;2.33;;
19131;SDS011;9698;51.976;7.570;2023-07-13T04:28:36;5.40;;;1.97;;
19131;SDS011;9698;51.976;7.570;2023-07-13T04:31:04;6.87;;;2.00;;
19131;SDS011;9698;51.976;7.570;2023-07-13T04:33:32;8.57;;;2.40;;
19131;SDS011;9698;51.976;7.570;2023-07-13T04:36:00;4.53;;;2.10;;
19131;SDS011;9698;51.976;7.570;2023-07-13T04:38:29;9.70;;;2.47;;
19131;SDS011;9698;51.976;7.570;2023-07-13T04:40:59;5.30;;;2.20;;
19131;SDS011;9698;51.976;7.570;2023-07-13T04:43:29;6.93;;;2.60;;
19131;SDS011;9698;51.976;7.570;2023-07-13T04:45:57;7.30;;;2.23;;
19131;SDS011;9698;51.976;7.570;2023-07-13T04:48:30;6.00;;;2.13;;
19131;SDS011;9698;51.976;7.570;2023-07-13T04:50:58;5.57;;;2.50;;
19131;SDS011;9698;51.976;7.570;2023-07-13T04:53:26;7.57;;;2.20;;
19131;SDS011;9698;51.976;7.570;2023-07-13T04:55:54;6.10;;;2.23;;
19131;SDS011;9698;51.976;7.570;2023-07-13T04:58:23;6.77;;;2.47;;
19131;SDS011;9698;51.976;7.570;2023-07-13T05:00:51;3.87;;;1.90;;
19131;SDS011;9698;51.976;7.570;2023-07-13T05:03:19;6.60;;;2.23;;
19131;SDS011;9698;51.976;7.570;2023-07-13T05:05:55;5.40;;;2.07;;
19131;SDS011;9698;51.976;7.570;2023-07-13T05:08:23;4.17;;;2.30;;
19131;SDS011;9698;51.976;7.570;2023-07-13T05:10:51;5.37;;;2.17;;
19131;SDS011;9698;51.976;7.570;2023-07-13T05:13:20;8.37;;;2.17;;
19131;SDS011;9698;51.976;7.570;2023-07-13T05:15:52;7.50;;;2.20;;
19131;SDS011;9698;51.976;7.570;2023-07-13T05:18:23;4.33;;;2.23;;
19131;SDS011;9698;51.976;7.570;2023-07-13T05:20:58;6.07;;;2.30;;
19131;SDS011;9698;51.976;7.570;2023-07-13T05:23:27;9.27;;;2.70;;
19131;SDS011;9698;51.976;7.570;2023-07-13T05:25:55;7.73;;;2.40;;
19131;SDS011;9698;51.976;7.570;2023-07-13T05:28:23;6.03;;;2.63;;
19131;SDS011;9698;51.976;7.570;2023-07-13T05:30:51;6.97;;;2.40;;
19131;SDS011;9698;51.976;7.570;2023-07-13T05:33:20;8.67;;;2.60;;
19131;SDS011;9698;51.976;7.570;2023-07-13T05:35:49;5.30;;;2.37;;
19131;SDS011;9698;51.976;7.570;2023-07-13T05:38:17;6.90;;;2.80;;
19131;SDS011;9698;51.976;7.570;2023-07-13T05:40:46;9.03;;;2.70;;
19131;SDS011;9698;51.976;7.570;2023-07-13T05:43:14;5.67;;;2.50;;
19131;SDS011;9698;51.976;7.570;2023-07-13T05:45:42;8.53;;;2.50;;
19131;SDS011;9698;51.976;7.570;2023-07-13T05:48:10;9.17;;;2.60;;
19131;SDS011;9698;51.976;7.570;2023-07-13T05:50:37;6.30;;;2.70;;
19131;SDS011;9698;51.976;7.570;2023-07-13T05:53:05;5.10;;;2.50;;
19131;SDS011;9698;51.976;7.570;2023-07-13T05:55:33;9.37;;;2.67;;
19131;SDS011;9698;51.976;7.570;2023-07-13T05:58:01;6.53;;;2.37;;
19131;SDS011;9698;51.976;7.570;2023-07-13T06:00:29;6.77;;;2.40;;
19131;SDS011;9698;51.976;7.570;2023-07-13T06:02:57;9.03;;;2.93;;
19131;SDS011;9698;51.976;7.570;2023-07-13T06:05:25;9.30;;;2.80;;
19131;SDS011;9698;51.976;7.570;2023-07-13T06:07:55;6.23;;;2.87;;
19131;SDS011;9698;51.976;7.570;2023-07-13T06:10:23;7.67;;;2.60;;
19131;SDS011;9698;51.976;7.570;2023-07-13T06:12:50;7.90;;;2.90;;
19131;SDS011;9698;51.976;7.570;2023-07-13T06:15:18;8.23;;;2.87;;
19131;SDS011;9698;51.976;7.570;2023-07-13T06:17:46;7.63;;;2.50;;
19131;SDS011;9698;51.976;7.570;2023-07-13T06:20:14;6.47;;;2.40;;
19131;SDS011;9698;51.976;7.570;2023-07-13T06:22:42;7.23;;;2.60;;
19131;SDS011;9698;51.976;7.570;2023-07-13T06:25:10;7.13;;;3.03;;
19131;SDS011;9698;51.976;7.570;2023-07-13T06:27:38;10.20;;;2.70;;
19131;SDS011;9698;51.976;7.570;2023-07-13T06:30:06;12.13;;;3.40;;
19131;SDS011;9698;51.976;7.570;2023-07-13T06:32:35;6.23;;;2.80;;
19131;SDS011;9698;51.976;7.570;2023-07-13T06:35:07;6.70;;;2.87;;
19131;SDS011;9698;51.976;7.570;2023-07-13T06:37:38;8.07;;;2.60;;
19131;SDS011;9698;51.976;7.570;2023-07-13T06:40:08;8.57;;;2.97;;
19131;SDS011;9698;51.976;7.570;2023-07-13T06:42:36;6.27;;;2.70;;
19131;SDS011;9698;51.976;7.570;2023-07-13T06:45:05;9.20;;;2.67;;
19131;SDS011;9698;51.976;7.570;2023-07-13T06:47:34;6.20;;;2.90;;
19131;SDS011;9698;51.976;7.570;2023-07-13T06:50:03;11.83;;;3.20;;
19131;SDS011;9698;51.976;7.570;2023-07-13T06:52:32;7.60;;;3.30;;
19131;SDS011;9698;51.976;7.570;2023-07-13T06:55:00;5.43;;;2.73;;
19131;SDS011;9698;51.976;7.570;2023-07-13T06:57:29;5.37;;;2.70;;
19131;SDS011;9698;51.976;7.570;2023-07-13T06:59:57;7.57;;;2.87;;
19131;SDS011;9698;51.976;7.570;2023-07-13T07:02:25;9.47;;;2.33;;
19131;SDS011;9698;51.976;7.570;2023-07-13T07:04:53;11.20;;;3.20;;
19131;SDS011;9698;51.976;7.570;2023-07-13T07:07:23;9.57;;;3.47;;
19131;SDS011;9698;51.976;7.570;2023-07-13T07:09:51;6.43;;;2.80;;
19131;SDS011;9698;51.976;7.570;2023-07-13T07:12:19;7.97;;;3.20;;
19131;SDS011;9698;51.976;7.570;2023-07-13T07:14:47;9.07;;;3.10;;
19131;SDS011;9698;51.976;7.570;2023-07-13T07:17:15;9.90;;;3.43;;
19131;SDS011;9698;51.976;7.570;2023-07-13T07:19:43;7.97;;;3.40;;
19131;SDS011;9698;51.976;7.570;2023-07-13T07:22:11;6.53;;;2.87;;
19131;SDS011;9698;51.976;7.570;2023-07-13T07:24:39;17.00;;;3.90;;
19131;SDS011;9698;51.976;7.570;2023-07-13T07:27:07;6.93;;;2.93;;
19131;SDS011;9698;51.976;7.570;2023-07-13T07:29:38;9.97;;;3.47;;
19131;SDS011;9698;51.976;7.570;2023-07-13T07:32:12;8.00;;;3.23;;
19131;SDS011;9698;51.976;7.570;2023-07-13T07:35:21;7.57;;;2.53;;
19131;SDS011;9698;51.976;7.570;2023-07-13T07:37:49;8.43;;;2.70;;
19131;SDS011;9698;51.976;7.570;2023-07-13T07:40:17;8.60;;;3.03;;
19131;SDS011;9698;51.976;7.570;2023-07-13T07:42:48;10.27;;;3.93;;
19131;SDS011;9698;51.976;7.570;2023-07-13T07:45:16;6.07;;;3.10;;
19131;SDS011;9698;51.976;7.570;2023-07-13T07:47:44;7.67;;;3.77;;
19131;SDS011;9698;51.976;7.570;2023-07-13T07:50:12;9.37;;;3.37;;
19131;SDS011;9698;51.976;7.570;2023-07-13T07:52:41;9.77;;;3.37;;
19131;SDS011;9698;51.976;7.570;2023-07-13T07:55:10;7.90;;;3.47;;
19131;SDS011;9698;51.976;7.570;2023-07-13T07:57:41;8.87;;;3.73;;
19131;SDS011;9698;51.976;7.570;2023-07-13T08:00:13;7.13;;;3.30;;
19131;SDS011;9698;51.976;7.570;2023-07-13T08:02:45;10.60;;;3.33;;
19131;SDS011;9698;51.976;7.570;2023-07-13T08:05:17;10.57;;;3.80;;
19131;SDS011;9698;51.976;7.570;2023-07-13T08:07:48;6.63;;;3.47;;
19131;SDS011;9698;51.976;7.570;2023-07-13T08:10:16;6.23;;;3.87;;
19131;SDS011;9698;51.976;7.570;2023-07-13T08:12:45;9.67;;;4.27;;
19131;SDS011;9698;51.976;7.570;2023-07-13T08:15:38;9.60;;;4.17;;
19131;SDS011;9698;51.976;7.570;2023-07-13T08:18:06;6.20;;;3.63;;
19131;SDS011;9698;51.976;7.570;2023-07-13T08:20:37;9.20;;;4.43;;
19131;SDS011;9698;51.976;7.570;2023-07-13T08:23:05;11.77;;;4.60;;
19131;SDS011;9698;51.976;7.570;2023-07-13T08:25:35;8.70;;;4.50;;
19131;SDS011;9698;51.976;7.570;2023-07-13T08:28:04;8.70;;;4.47;;
19131;SDS011;9698;51.976;7.570;2023-07-13T08:30:32;9.33;;;4.60;;
19131;SDS011;9698;51.976;7.570;2023-07-13T08:33:00;8.20;;;4.23;;
19131;SDS011;9698;51.976;7.570;2023-07-13T08:35:28;10.23;;;4.20;;
19131;SDS011;9698;51.976;7.570;2023-07-13T08:37:56;6.77;;;4.10;;
19131;SDS011;9698;51.976;7.570;2023-07-13T08:40:26;9.37;;;4.93;;
19131;SDS011;9698;51.976;7.570;2023-07-13T08:42:55;11.57;;;4.80;;
19131;SDS011;9698;51.976;7.570;2023-07-13T08:45:28;10.43;;;4.63;;
19131;SDS011;9698;51.976;7.570;2023-07-13T08:48:03;7.90;;;3.60;;
19131;SDS011;9698;51.976;7.570;2023-07-13T08:50:37;10.33;;;4.17;;
19131;SDS011;9698;51.976;7.570;2023-07-13T08:53:28;7.23;;;4.10;;
19131;SDS011;9698;51.976;7.570;2023-07-13T08:56:01;10.17;;;4.60;;
19131;SDS011;9698;51.976;7.570;2023-07-13T08:58:30;13.47;;;4.70;;
19131;SDS011;9698;51.976;7.570;2023-07-13T09:01:01;9.07;;;4.57;;
19131;SDS011;9698;51.976;7.570;2023-07-13T09:03:40;12.20;;;4.47;;
19131;SDS011;9698;51.976;7.570;2023-07-13T09:06:13;9.00;;;4.30;;
19131;SDS011;9698;51.976;7.570;2023-07-13T09:08:46;8.07;;;3.90;;
19131;SDS011;9698;51.976;7.570;2023-07-13T09:11:29;6.87;;;3.90;;
19131;SDS011;9698;51.976;7.570;2023-07-13T09:14:13;6.07;;;3.80;;
19131;SDS011;9698;51.976;7.570;2023-07-13T09:17:00;9.80;;;4.33;;
19131;SDS011;9698;51.976;7.570;2023-07-13T09:19:31;11.03;;;4.23;;
19131;SDS011;9698;51.976;7.570;2023-07-13T09:22:02;9.13;;;4.10;;
19131;SDS011;9698;51.976;7.570;2023-07-13T09:24:38;10.50;;;4.30;;
19131;SDS011;9698;51.976;7.570;2023-07-13T09:27:11;7.43;;;3.87;;
19131;SDS011;9698;51.976;7.570;2023-07-13T09:29:47;9.03;;;3.97;;
19131;SDS011;9698;51.976;7.570;2023-07-13T09:32:21;10.40;;;4.33;;
19131;SDS011;9698;51.976;7.570;2023-07-13T09:34:51;8.53;;;3.90;;
19131;SDS011;9698;51.976;7.570;2023-07-13T09:37:21;9.77;;;4.00;;
19131;SDS011;9698;51.976;7.570;2023-07-13T09:39:53;8.77;;;4.13;;
19131;SDS011;9698;51.976;7.570;2023-07-13T09:42:22;9.53;;;3.90;;
19131;SDS011;9698;51.976;7.570;2023-07-13T09:44:53;8.23;;;4.33;;
19131;SDS011;9698;51.976;7.570;2023-07-13T09:47:22;8.97;;;4.37;;
19131;SDS011;9698;51.976;7.570;2023-07-13T09:49:56;8.47;;;4.03;;
19131;SDS011;9698;51.976;7.570;2023-07-13T09:52:38;8.20;;;3.83;;
19131;SDS011;9698;51.976;7.570;2023-07-13T09:55:22;6.63;;;3.70;;
19131;SDS011;9698;51.976;7.570;2023-07-13T09:57:52;10.57;;;3.73;;
19131;SDS011;9698;51.976;7.570;2023-07-13T10:00:22;6.70;;;4.10;;
19131;SDS011;9698;51.976;7.570;2023-07-13T10:03:00;7.43;;;3.47;;
19131;SDS011;9698;51.976;7.570;2023-07-13T10:05:37;8.00;;;3.80;;
19131;SDS011;9698;51.976;7.570;2023-07-13T10:08:13;8.67;;;3.63;;
19131;SDS011;9698;51.976;7.570;2023-07-13T10:10:44;8.67;;;3.37;;
19131;SDS011;9698;51.976;7.570;2023-07-13T10:13:24;8.20;;;3.67;;
19131;SDS011;9698;51.976;7.570;2023-07-13T10:15:56;7.23;;;3.57;;
19131;SDS011;9698;51.976;7.570;2023-07-13T10:18:25;6.90;;;3.17;;
19131;SDS011;9698;51.976;7.570;2023-07-13T10:20:55;7.77;;;3.43;;
19131;SDS011;9698;51.976;7.570;2023-07-13T10:23:49;6.27;;;2.87;;
19131;SDS011;9698;51.976;7.570;2023-07-13T10:26:21;5.07;;;2.90;;
19131;SDS011;9698;51.976;7.570;2023-07-13T10:28:53;5.43;;;2.93;;
19131;SDS011;9698;51.976;7.570;2023-07-13T10:31:23;8.87;;;2.83;;
19131;SDS011;9698;51.976;7.570;2023-07-13T10:33:52;8.23;;;2.90;;
19131;SDS011;9698;51.976;7.570;2023-07-13T10:36:23;5.47;;;3.10;;
19131;SDS011;9698;51.976;7.570;2023-07-13T10:38:57;6.97;;;3.37;;
19131;SDS011;9698;51.976;7.570;2023-07-13T10:41:30;6.47;;;3.67;;
19131;SDS011;9698;51.976;7.570;2023-07-13T10:44:00;8.10;;;4.30;;
19131;SDS011;9698;51.976;7.570;2023-07-13T10:46:30;8.80;;;3.30;;
19131;SDS011;9698;51.976;7.570;2023-07-13T10:48:59;7.23;;;2.90;;
19131;SDS011;9698;51.976;7.570;2023-07-13T10:51:30;7.60;;;3.30;;
19131;SDS011;9698;51.976;7.570;2023-07-13T10:54:16;8.07;;;2.97;;
19131;SDS011;9698;51.976;7.570;2023-07-13T10:56:49;5.77;;;2.70;;
19131;SDS011;9698;51.976;7.570;2023-07-13T10:59:23;6.40;;;2.87;;
19131;SDS011;9698;51.976;7.570;2023-07-13T11:01:55;7.00;;;2.90;;
19131;SDS011;9698;51.976;7.570;2023-07-13T11:04:25;6.97;;;2.87;;
19131;SDS011;9698;51.976;7.570;2023-07-13T11:06:57;8.17;;;3.17;;
19131;SDS011;9698;51.976;7.570;2023-07-13T11:09:36;5.80;;;2.93;;
19131;SDS011;9698;51.976;7.570;2023-07-13T11:12:07;4.73;;;2.37;;
19131;SDS011;9698;51.976;7.570;2023-07-13T11:15:01;5.07;;;2.50;;
19131;SDS011;9698;51.976;7.570;2023-07-13T11:17:37;4.50;;;2.77;;
19131;SDS011;9698;51.976;7.570;2023-07-13T11:20:36;4.13;;;2.37;;
19131;SDS011;9698;51.976;7.570;2023-07-13T11:29:09;7.00;;;3.57;;
19131;SDS011;9698;51.976;7.570;2023-07-13T11:31:52;6.87;;;2.47;;
19131;SDS011;9698;51.976;7.570;2023-07-13T11:34:24;3.97;;;2.07;;
19131;SDS011;9698;51.976;7.570;2023-07-13T11:36:57;5.27;;;2.40;;
19131;SDS011;9698;51.976;7.570;2023-07-13T11:39:27;6.20;;;2.90;;
19131;SDS011;9698;51.976;7.570;2023-07-13T11:41:59;7.17;;;2.70;;
19131;SDS011;9698;51.976;7.570;2023-07-13T11:44:30;6.37;;;2.90;;
19131;SDS011;9698;51.976;7.570;2023-07-13T11:47:07;5.53;;;2.60;;
19131;SDS011;9698;51.976;7.570;2023-07-13T11:49:41;5.57;;;2.93;;
19131;SDS011;9698;51.976;7.570;2023-07-13T11:52:11;5.27;;;2.47;;
19131;SDS011;9698;51.976;7.570;2023-07-13T11:54:49;5.20;;;2.90;;
19131;SDS011;9698;51.976;7.570;2023-07-13T11:57:37;4.47;;;2.60;;
19131;SDS011;9698;51.976;7.570;2023-07-13T12:00:12;4.97;;;2.40;;
19131;SDS011;9698;51.976;7.570;2023-07-13T12:02:43;5.87;;;2.50;;
19131;SDS011;9698;51.976;7.570;2023-07-13T12:05:13;4.70;;;2.50;;
19131;SDS011;9698;51.976;7.570;2023-07-13T12:07:44;4.63;;;2.60;;
19131;SDS011;9698;51.976;7.570;2023-07-13T12:10:17;4.30;;;2.63;;
19131;SDS011;9698;51.976;7.570;2023-07-13T12:12:48;3.57;;;2.37;;
19131;SDS011;9698;51.976;7.570;2023-07-13T12:15:19;5.40;;;2.67;;
19131;SDS011;9698;51.976;7.570;2023-07-13T12:17:49;5.97;;;2.70;;
19131;SDS011;9698;51.976;7.570;2023-07-13T12:20:21;5.17;;;2.80;;
19131;SDS011;9698;51.976;7.570;2023-07-13T12:22:53;6.17;;;3.20;;
19131;SDS011;9698;51.976;7.570;2023-07-13T12:25:28;9.43;;;3.60;;
19131;SDS011;9698;51.976;7.570;2023-07-13T12:27:57;5.73;;;3.03;;
19131;SDS011;9698;51.976;7.570;2023-07-13T12:30:26;4.43;;;3.17;;
19131;SDS011;9698;51.976;7.570;2023-07-13T12:32:58;7.47;;;3.60;;
19131;SDS011;9698;51.976;7.570;2023-07-13T12:35:28;8.57;;;3.23;;
19131;SDS011;9698;51.976;7.570;2023-07-13T12:37:59;7.70;;;3.20;;
19131;SDS011;9698;51.976;7.570;2023-07-13T12:40:28;7.90;;;3.50;;
19131;SDS011;9698;51.976;7.570;2023-07-13T12:43:03;5.73;;;3.47;;
19131;SDS011;9698;51.976;7.570;2023-07-13T12:45:33;5.03;;;3.27;;
19131;SDS011;9698;51.976;7.570;2023-07-13T12:48:04;5.13;;;3.10;;
19131;SDS011;9698;51.976;7.570;2023-07-13T12:50:41;8.07;;;3.27;;
19131;SDS011;9698;51.976;7.570;2023-07-13T12:53:14;9.17;;;3.73;;
19131;SDS011;9698;51.976;7.570;2023-07-13T12:55:45;5.83;;;3.70;;
19131;SDS011;9698;51.976;7.570;2023-07-13T12:58:17;6.77;;;4.00;;
19131;SDS011;9698;51.976;7.570;2023-07-13T13:00:50;8.83;;;4.23;;
19131;SDS011;9698;51.976;7.570;2023-07-13T13:03:26;6.53;;;3.77;;
19131;SDS011;9698;51.976;7.570;2023-07-13T13:05:58;10.33;;;3.40;;
19131;SDS011;9698;51.976;7.570;2023-07-13T13:08:30;9.60;;;4.10;;
19131;SDS011;9698;51.976;7.570;2023-07-13T13:10:59;5.90;;;4.07;;
19131;SDS011;9698;51.976;7.570;2023-07-13T13:13:28;7.97;;;4.00;;
19131;SDS011;9698;51.976;7.570;2023-07-13T13:16:00;6.40;;;3.97;;
19131;SDS011;9698;51.976;7.570;2023-07-13T13:18:32;7.27;;;5.00;;
19131;SDS011;9698;51.976;7.570;2023-07-13T13:21:00;7.90;;;4.57;;
19131;SDS011;9698;51.976;7.570;2023-07-13T13:23:29;10.83;;;5.13;;
19131;SDS011;9698;51.976;7.570;2023-07-13T13:25:58;9.70;;;4.77;;
19131;SDS011;9698;51.976;7.570;2023-07-13T13:28:26;6.83;;;4.30;;
19131;SDS011;9698;51.976;7.570;2023-07-13T13:30:55;5.70;;;4.03;;
19131;SDS011;9698;51.976;7.570;2023-07-13T13:33:25;5.03;;;4.23;;
19131;SDS011;9698;51.976;7.570;2023-07-13T13:35:53;6.53;;;4.40;;
19131;SDS011;9698;51.976;7.570;2023-07-13T13:38:26;5.53;;;4.23;;
19131;SDS011;9698;51.976;7.570;2023-07-13T13:40:54;7.37;;;4.70;;
19131;SDS011;9698;51.976;7.570;2023-07-13T13:43:23;7.83;;;4.60;;
19131;SDS011;9698;51.976;7.570;2023-07-13T13:45:53;7.20;;;4.43;;
19131;SDS011;9698;51.976;7.570;2023-07-13T13:48:25;7.83;;;4.70;;
19131;SDS011;9698;51.976;7.570;2023-07-13T13:50:57;5.97;;;3.87;;
19131;SDS011;9698;51.976;7.570;2023-07-13T13:53:27;4.90;;;4.10;;
19131;SDS011;9698;51.976;7.570;2023-07-13T13:55:55;6.67;;;4.13;;
19131;SDS011;9698;51.976;7.570;2023-07-13T13:58:22;4.70;;;3.27;;
19131;SDS011;9698;51.976;7.570;2023-07-13T14:00:50;4.87;;;3.03;;
19131;SDS011;9698;51.976;7.570;2023-07-13T14:03:18;5.77;;;3.67;;
19131;SDS011;9698;51.976;7.570;2023-07-13T14:05:48;4.60;;;2.97;;
19131;SDS011;9698;51.976;7.570;2023-07-13T14:08:17;8.70;;;3.80;;
19131;SDS011;9698;51.976;7.570;2023-07-13T14:10:47;5.50;;;3.30;;
19131;SDS011;9698;51.976;7.570;2023-07-13T14:13:16;5.87;;;3.87;;
19131;SDS011;9698;51.976;7.570;2023-07-13T14:15:46;4.23;;;3.47;;
19131;SDS011;9698;51.976;7.570;2023-07-13T14:18:14;4.87;;;4.20;;
19131;SDS011;9698;51.976;7.570;2023-07-13T14:20:44;4.57;;;3.70;;
19131;SDS011;9698;51.976;7.570;2023-07-13T14:23:13;6.30;;;4.10;;
19131;SDS011;9698;51.976;7.570;2023-07-13T14:25:42;5.03;;;3.93;;
19131;SDS011;9698;51.976;7.570;2023-07-13T14:28:15;4.57;;;3.90;;
19131;SDS011;9698;51.976;7.570;2023-07-13T14:30:47;6.67;;;4.17;;
19131;SDS011;9698;51.976;7.570;2023-07-13T14:33:16;6.37;;;4.17;;
19131;SDS011;9698;51.976;7.570;2023-07-13T14:35:44;5.00;;;4.37;;
19131;SDS011;9698;51.976;7.570;2023-07-13T14:38:14;6.73;;;4.33;;
19131;SDS011;9698;51.976;7.570;2023-07-13T14:40:44;6.27;;;4.10;;
19131;SDS011;9698;51.976;7.570;2023-07-13T14:43:13;6.03;;;4.20;;
19131;SDS011;9698;51.976;7.570;2023-07-13T14:45:43;6.00;;;4.17;;
19131;SDS011;9698;51.976;7.570;2023-07-13T14:48:14;8.27;;;3.70;;
19131;SDS011;9698;51.976;7.570;2023-07-13T14:50:45;4.43;;;3.93;;
19131;SDS011;9698;51.976;7.570;2023-07-13T14:53:13;4.87;;;3.47;;
19131;SDS011;9698;51.976;7.570;2023-07-13T14:55:41;5.80;;;3.73;;
19131;SDS011;9698;51.976;7.570;2023-07-13T14:58:09;6.77;;;3.80;;
19131;SDS011;9698;51.976;7.570;2023-07-13T15:00:37;6.53;;;3.60;;
19131;SDS011;9698;51.976;7.570;2023-07-13T15:03:08;4.20;;;3.80;;
19131;SDS011;9698;51.976;7.570;2023-07-13T15:05:47;5.23;;;3.67;;
19131;SDS011;9698;51.976;7.570;2023-07-13T15:08:16;4.37;;;3.70;;
19131;SDS011;9698;51.976;7.570;2023-07-13T15:10:44;4.43;;;3.50;;
19131;SDS011;9698;51.976;7.570;2023-07-13T15:13:16;4.87;;;3.90;;
19131;SDS011;9698;51.976;7.570;2023-07-13T15:15:50;6.87;;;4.00;;
19131;SDS011;9698;51.976;7.570;2023-07-13T15:21:07;4.23;;;3.27;;
19131;SDS011;9698;51.976;7.570;2023-07-13T15:23:40;5.77;;;4.10;;
19131;SDS011;9698;51.976;7.570;2023-07-13T15:26:09;4.93;;;3.13;;
19131;SDS011;9698;51.976;7.570;2023-07-13T15:28:41;4.97;;;3.53;;
19131;SDS011;9698;51.976;7.570;2023-07-13T15:31:16;5.57;;;3.30;;
19131;SDS011;9698;51.976;7.570;2023-07-13T15:33:46;4.67;;;3.50;;